Flight Track Log - Related Links

Times and Time Zones

All times are in EDT time to prevent confusion due to time zone crossing. See the EGF3681 flight status page for this flight to view local times or setup timezone preferences in your user account.

Time Position Orientation Groundspeed Altitude Reporting Facility
EDT Latitude Longitude Course Direction KTS MPH feet Rate Location/Type
Wed 10:57:00 PM 41.8090 -87.5831 95° East  Level Estimated
Wed 10:58:00 PM 41.8436 -87.4588 69° East  Level FlightAware Approximate
Wed 10:59:00 PM 41.7836 -87.3535 90° East  Level Estimated
Wed 10:59:09 PM 42.0600 -87.6090 90° East 100 115 9,800  Level FlightAware ADS-B
Wed 10:59:29 PM 42.0520 -87.5730 107° East 301 346 10,300 592 Climbing FlightAware ADS-B
Wed 11:00:20 PM 42.0350 -87.4830 104° East 322 371 10,500 138 Climbing FlightAware ADS-B
Wed 11:00:56 PM 42.0240 -87.4230 104° East 322 371 10,500  Level FlightAware ADS-B
Wed 11:01:32 PM 42.0140 -87.3640 103° East 322 371 10,500 1,726 Level FlightAware ADS-B
Wed 11:02:09 PM 41.9970 -87.2120 99° East 322 371 12,600 2,885 Climbing FlightAware ADS-B
Wed 11:02:24 PM 41.9910 -87.1780 103° East 402 463 13,000 1,543 Climbing FlightAware ADS-B
Wed 11:02:44 PM 41.9850 -87.1240 98° East 393 452 13,500 1,680 Climbing FlightAware ADS-B
Wed 11:02:49 PM 41.9830 -87.1110 102° East 387 445 13,700 1,067 Climbing FlightAware ADS-B
Wed 11:03:29 PM 41.9690 -87.0150 101° East 410 472 14,300 800 Climbing FlightAware ADS-B
Wed 11:04:19 PM 41.9560 -86.9110 100° East 410 472 14,900 1,725 Climbing FlightAware ADS-B
Wed 11:04:49 PM 41.9420 -86.8240 102° East 410 472 16,600 2,618 Climbing FlightAware ADS-B
Wed 11:05:14 PM 41.9230 -86.7730 117° Southeast 382 440 17,300 1,800 Climbing FlightAware ADS-B
Wed 11:05:39 PM 41.8830 -86.7190 135° Southeast 408 470 18,100 706 Climbing FlightAware ADS-B
Wed 11:06:22 PM 41.8340 -86.6570 137° Southeast 408 470 18,100  Level FlightAware ADS-B
Wed 11:06:58 PM 41.7920 -86.6050 137° Southeast 408 470 18,100 2,526 Level FlightAware ADS-B
Wed 11:07:19 PM 41.7530 -86.5580 138° Southeast 395 455 20,500 4,244 Climbing FlightAware ADS-B
Wed 11:07:39 PM 41.7230 -86.5190 136° Southeast 395 455 21,000 1,800 Climbing FlightAware ADS-B
Wed 11:07:49 PM 41.7080 -86.5010 138° Southeast 395 455 21,400 1,600 Climbing FlightAware ADS-B
Wed 11:07:54 PM 41.7010 -86.4930 140° Southeast 395 455 21,400 1,200 Level FlightAware ADS-B
Wed 11:07:59 PM 41.6950 -86.4830 129° Southeast 395 455 21,600 2,000 Climbing FlightAware ADS-B
Wed 11:08:09 PM 41.6820 -86.4700 143° Southeast 432 497 21,900 1,600 Climbing FlightAware ADS-B
Wed 11:08:29 PM 41.6530 -86.4240 130° Southeast 483 556 22,400 857 Climbing FlightAware ADS-B
Wed 11:08:44 PM 41.6330 -86.4060 146° Southeast 343 395 22,400 240 Level FlightAware ADS-B
Wed 11:08:54 PM 41.6190 -86.3870 135° Southeast 343 395 22,500 1,200 Climbing FlightAware ADS-B
Wed 11:09:14 PM 41.5910 -86.3490 135° Southeast 432 497 23,000 857 Climbing FlightAware ADS-B
Wed 11:09:29 PM 41.5690 -86.3230 139° Southeast 445 512 23,000  Level FlightAware ADS-B
Wed 11:09:44 PM 41.5470 -86.2950 136° Southeast 469 540 23,000  Level FlightAware ADS-B
Wed 11:09:49 PM 41.5390 -86.2840 134° Southeast 469 540 23,000  Level FlightAware ADS-B
Wed 11:10:04 PM 41.5170 -86.2550 135° Southeast 444 511 23,000  Level FlightAware ADS-B
Wed 11:10:52 PM 41.4540 -86.1830 139° Southeast 449 517 23,000  Level FlightAware ADS-B
Wed 11:11:25 PM 41.3930 -86.0970 133° Southeast 463 533 23,000  Level FlightAware ADS-B
Wed 11:11:44 PM 41.3580 -86.0510 135° Southeast 456 525 23,000  Level FlightAware ADS-B
Wed 11:11:49 PM 41.3510 -86.0430 139° Southeast 456 525 23,000  Level FlightAware ADS-B
Wed 11:11:59 PM 41.3280 -85.9860 118° Southeast 645 742 23,000  Level FlightAware ADS-B
Wed 11:12:38 PM 41.2340 -85.9450 162° South 645 742 23,000  Level FlightAware ADS-B
Wed 11:13:15 PM 41.1440 -85.9060 162° South 645 742 23,000  Level FlightAware ADS-B
Wed 11:13:52 PM 41.0550 -85.8680 162° South 645 742 23,000  Level FlightAware ADS-B
Wed 11:14:29 PM 40.9660 -85.8300 162° South 645 742 23,000  Level FlightAware ADS-B
Wed 11:15:06 PM 40.8760 -85.7910 162° South 645 742 23,000  Level FlightAware ADS-B
Wed 11:15:44 PM 40.9840 -85.5820 56° Northeast 376 433 23,000  Level FlightAware ADS-B
Wed 11:16:04 PM 40.9560 -85.5480 137° Southeast 371 427 23,000  Level FlightAware ADS-B
Wed 11:16:09 PM 40.9460 -85.5380 143° Southeast 371 427 23,000  Level FlightAware ADS-B
Wed 11:16:50 PM 40.8890 -85.4550 132° Southeast 522 601 23,000  Level FlightAware ADS-B
Wed 11:17:26 PM 40.8410 -85.3810 131° Southeast 522 601 23,000  Level FlightAware ADS-B
Wed 11:18:03 PM 40.7910 -85.3050 131° Southeast 522 601 23,000  Level FlightAware ADS-B
Wed 11:18:40 PM 40.7410 -85.2290 131° Southeast 522 601 23,000  Level FlightAware ADS-B
Wed 11:19:16 PM 40.6930 -85.1560 131° Southeast 522 601 23,000  Level FlightAware ADS-B
Wed 11:19:52 PM 40.6440 -85.0820 131° Southeast 522 601 23,000 -4,660 Level FlightAware ADS-B
Wed 11:20:59 PM 40.5058 -84.9900 131° Southeast 410 472 15,000 -4,078 Descending Indianapolis Center
Wed 11:22:00 PM 40.4272 -84.8947 137° Southeast 406 467 14,300 -896 Descending Indianapolis Center
Wed 11:22:06 PM 40.4064 -84.8708 139° Southeast 404 465 14,000 -1,222 Descending Indianapolis Center
Wed 11:22:54 PM 40.3397 -84.7867 136° Southeast 397 457 13,200 -1,000 Descending Indianapolis Center
Wed 11:23:00 PM 40.3311 -84.7767 138° Southeast 399 459 13,100 -984 Descending Indianapolis Center
Wed 11:23:55 PM 40.2683 -84.6906 134° Southeast 366 421 12,200 -885 Descending Indianapolis Center
Wed 11:24:01 PM 40.2619 -84.6783 124° Southeast 375 432 12,200 -1,800 Level Indianapolis Center
Wed 11:24:55 PM 40.2158 -84.5928 125° Southeast 316 364 10,400 -1,967 Descending Indianapolis Center
Wed 11:25:02 PM 40.2092 -84.5825 130° Southeast 332 382 10,200 -1,676 Descending Indianapolis Center
Wed 11:26:03 PM 40.1569 -84.4886 126° Southeast 324 373 8,500 -1,727 Descending Indianapolis Center
Wed 11:26:08 PM 40.1525 -84.4769 116° Southeast 315 362 8,300 -2,200 Descending Indianapolis Center
Wed 11:27:03 PM 40.1081 -84.4003 127° Southeast 285 328 6,300 -2,143 Descending Indianapolis Center
Wed 11:27:04 PM 40.1106 -84.4033 317° Northwest 302 348 6,300 -1,800 Level Indianapolis Center
Wed 11:28:03 PM 40.0622 -84.3181 127° Southeast 275 316 4,500 -1,672 Descending Indianapolis Center
Wed 11:28:05 PM 40.0647 -84.3219 310° West 289 333 4,600 -1,672 Climbing Indianapolis Center
Wed 11:29:04 PM 40.0197 -84.2419 126° Southeast 260 299 2,800 -1,672 Descending Indianapolis Center
Wed 11:29:06 PM 40.0225 -84.2458 313° West 275 316 2,900 -98 Climbing Indianapolis Center
Wed 11:30:05 PM 39.9775 -84.1658 126° Southeast 253 291 2,700 -295 Descending Indianapolis Center
Wed 11:30:07 PM 39.9806 -84.1708 309° West 264 304 2,600 -500 Descending Indianapolis Center
Wed 11:31:05 PM 39.9389 -84.1508 160° South 149 171 2,200 -393 Descending Indianapolis Center
Wed 11:31:08 PM 39.9406 -84.1467 62° Northeast 221 254 2,200 -764 Level Indianapolis Center
Wed 11:32:00 PM 39.9242 -84.1919 245° Southwest 122 140 1,500 -590 Descending Indianapolis Center
Wed 11:32:09 PM 39.9250 -84.1947 291° West 168 193 1,600 667 Climbing Indianapolis Center

Login

Don't have an account? Register now (free) for customized features, flight alerts, and more!